Главная страница
METAR-TAF:

METAR-TAF

Аэропорты :

Питерборо, Онтарио, Канада

широта: 44-14N, долгота: 078-22W, высота над уровнем моря: 191 м

Текущие метеонаблюдения

Эта сводка был подготовлена 1 час и 13 минут назад, в 15:00 UTC
Ветер 7 Узел от западно-северо-западный, изменяющийся между западный и северо-западный
Температура 18°C
Влажность 28%
Давление 1025 hPa
Видимость: 14.5 км
ясное небо

METAR: CYPQ 141500Z AUTO 29007KT 260V320 9SM CLR 18/M01 A3027 RMK SLP254 DENSITY ALT 800FT

Время: 12:13 (16:13 UTC)

Прогноз

Эта сводка был подготовлена 2 часа и 35 минут назад, в 13:38 UTC
Прогноз действительный с 14-го 14 UTC до 15-го 02 UTC
Ветер 10 Узел от западно-северо-западный
Видимость: 10 км
ясное небо
изменения
С 15-го 00 UTC до 15-го 02 UTC
Ветер 3 Узел переменных направлений

TAF: CYPQ 141338Z 1414/1502 29010KT P6SM SKC BECMG 1500/1502 VRB03KT RMK FCST BASED ON AUTO OBS. NXT FCST BY 142000Z

Метеонаблюдения и прогнозы для более 4000 аэропортов (сводки METAR и TAF).

Имеющиеся станции представлены на карте желтыми и красными точками.

Чтобы увидеть название станции, наведите на нее мышь.

Затем щелкните, чтобы увидеть метеонаблюдения и метеопрогнозы.

Управление картой: чтобы увеличить масштаб, щелкните зеленые кнопки с черным крестиком; чтобы уменьшить масштаб, щелкните зеленую кнопку с тире; для просмотра соседних карт щелкайте зеленые стрелки.


METAR-TAF: